The Eastern Iowa Airport Cedar Rapids US
ICAO: KCID
IATA: CID
Category: Large
Scheduled Services: Yes

Elevation: 869 ft
TransAlt. 18000 ft.

Airport Communications:
APP/DEP:119.05
ATIS:124.15
CLNC DEL:125.45
CTAF:118.7
GND:121.6
FORT DODGE RDO:122.55
TWR:118.7
UNICOM:122.95

KCID Zoom In..

Runways:

(A) RW 09 length 8600 ft width 150 ft
ILS 109.30 / hdg 89

(B) RW 13 length 6200 ft width 150 ft
---- / hdg 134

(C) RW 27 length 8600 ft width 150 ft
ILS 111.30 / hdg 269

(D) RW 31 length 6200 ft width 150 ft
---- / hdg 314

Location; KCID
Day. 26 / Time. 12.52 Zulu
* Altimeter: 29.77
* Temperature: 21° c. 69.8°f.
* Wind from: 220° Speed 07 kn.
Dewpoint: 18° c.
Visibility: 10 Statute Miles.
Clouds: Clear (automated report).

KCID 261252Z 22007KT 10SM CLR 21/18 A2977 RMK AO2 SLP074 T02110183


Wind From 220°
Speed 07 kn.

 
 
jpsmedia.com for Web Design SOUNDCLOUD worldairports.se 2018   terms of use